sensor_id;sensor_type;location;lat;lon;timestamp;P1;durP1;ratioP1;P2;durP2;ratioP2
47161;SDS011;32921;53.256;8.198;2023-11-19T00:02:06;863.88;;;778.45;;
47161;SDS011;32921;53.256;8.198;2023-11-19T00:04:33;831.63;;;749.83;;
47161;SDS011;32921;53.256;8.198;2023-11-19T00:07:02;845.58;;;761.10;;
47161;SDS011;32921;53.256;8.198;2023-11-19T00:09:30;869.38;;;781.55;;
47161;SDS011;32921;53.256;8.198;2023-11-19T00:11:56;852.92;;;768.28;;
47161;SDS011;32921;53.256;8.198;2023-11-19T00:14:22;865.58;;;780.13;;
47161;SDS011;32921;53.256;8.198;2023-11-19T00:16:49;876.95;;;789.88;;
47161;SDS011;32921;53.256;8.198;2023-11-19T00:19:16;863.83;;;777.35;;
47161;SDS011;32921;53.256;8.198;2023-11-19T00:21:41;868.65;;;782.08;;
47161;SDS011;32921;53.256;8.198;2023-11-19T00:24:07;879.20;;;791.70;;
47161;SDS011;32921;53.256;8.198;2023-11-19T00:26:33;885.65;;;797.75;;
47161;SDS011;32921;53.256;8.198;2023-11-19T00:28:59;871.42;;;783.20;;
47161;SDS011;32921;53.256;8.198;2023-11-19T00:31:25;866.63;;;780.75;;
47161;SDS011;32921;53.256;8.198;2023-11-19T00:33:52;870.10;;;783.05;;
47161;SDS011;32921;53.256;8.198;2023-11-19T00:36:18;869.22;;;781.17;;
47161;SDS011;32921;53.256;8.198;2023-11-19T00:38:44;859.80;;;773.05;;
47161;SDS011;32921;53.256;8.198;2023-11-19T00:41:10;884.22;;;794.53;;
47161;SDS011;32921;53.256;8.198;2023-11-19T00:43:35;876.50;;;787.88;;
47161;SDS011;32921;53.256;8.198;2023-11-19T00:46:01;879.90;;;791.55;;
47161;SDS011;32921;53.256;8.198;2023-11-19T00:48:29;898.47;;;807.75;;
47161;SDS011;32921;53.256;8.198;2023-11-19T00:50:54;892.90;;;802.70;;
47161;SDS011;32921;53.256;8.198;2023-11-19T00:53:20;867.58;;;778.72;;
47161;SDS011;32921;53.256;8.198;2023-11-19T00:55:45;901.78;;;809.10;;
47161;SDS011;32921;53.256;8.198;2023-11-19T00:58:11;866.33;;;777.45;;
47161;SDS011;32921;53.256;8.198;2023-11-19T01:00:36;896.85;;;804.72;;
47161;SDS011;32921;53.256;8.198;2023-11-19T01:03:02;888.58;;;797.78;;
47161;SDS011;32921;53.256;8.198;2023-11-19T01:05:27;884.47;;;794.25;;
47161;SDS011;32921;53.256;8.198;2023-11-19T01:07:53;876.88;;;787.30;;
47161;SDS011;32921;53.256;8.198;2023-11-19T01:10:19;879.75;;;789.90;;
47161;SDS011;32921;53.256;8.198;2023-11-19T01:12:45;895.35;;;802.00;;
47161;SDS011;32921;53.256;8.198;2023-11-19T01:15:11;877.63;;;787.97;;
47161;SDS011;32921;53.256;8.198;2023-11-19T01:17:38;903.58;;;810.72;;
47161;SDS011;32921;53.256;8.198;2023-11-19T01:20:03;889.25;;;797.40;;
47161;SDS011;32921;53.256;8.198;2023-11-19T01:22:32;889.08;;;796.80;;
47161;SDS011;32921;53.256;8.198;2023-11-19T01:24:57;892.80;;;801.22;;
47161;SDS011;32921;53.256;8.198;2023-11-19T01:27:23;903.75;;;811.55;;
47161;SDS011;32921;53.256;8.198;2023-11-19T01:29:49;894.90;;;801.00;;
47161;SDS011;32921;53.256;8.198;2023-11-19T01:32:15;875.05;;;785.58;;
47161;SDS011;32921;53.256;8.198;2023-11-19T01:34:41;903.67;;;811.42;;
47161;SDS011;32921;53.256;8.198;2023-11-19T01:37:06;885.20;;;793.97;;
47161;SDS011;32921;53.256;8.198;2023-11-19T01:39:34;907.55;;;812.88;;
47161;SDS011;32921;53.256;8.198;2023-11-19T01:42:00;908.15;;;812.10;;
47161;SDS011;32921;53.256;8.198;2023-11-19T01:44:25;904.40;;;810.55;;
47161;SDS011;32921;53.256;8.198;2023-11-19T01:46:51;903.53;;;807.92;;
47161;SDS011;32921;53.256;8.198;2023-11-19T01:49:17;891.45;;;797.88;;
47161;SDS011;32921;53.256;8.198;2023-11-19T01:51:43;887.13;;;795.50;;
47161;SDS011;32921;53.256;8.198;2023-11-19T01:54:10;932.95;;;835.00;;
47161;SDS011;32921;53.256;8.198;2023-11-19T01:56:37;892.85;;;798.85;;
47161;SDS011;32921;53.256;8.198;2023-11-19T01:59:05;902.33;;;806.35;;
47161;SDS011;32921;53.256;8.198;2023-11-19T02:01:32;917.75;;;820.90;;
47161;SDS011;32921;53.256;8.198;2023-11-19T02:04:01;903.20;;;807.22;;
47161;SDS011;32921;53.256;8.198;2023-11-19T02:06:27;900.97;;;806.53;;
47161;SDS011;32921;53.256;8.198;2023-11-19T02:08:53;901.50;;;806.55;;
47161;SDS011;32921;53.256;8.198;2023-11-19T02:11:19;913.35;;;816.72;;
47161;SDS011;32921;53.256;8.198;2023-11-19T02:13:44;908.60;;;813.00;;
47161;SDS011;32921;53.256;8.198;2023-11-19T02:16:10;914.10;;;816.78;;
47161;SDS011;32921;53.256;8.198;2023-11-19T02:18:36;923.83;;;825.13;;
47161;SDS011;32921;53.256;8.198;2023-11-19T02:21:01;923.03;;;824.58;;
47161;SDS011;32921;53.256;8.198;2023-11-19T02:23:27;913.75;;;816.35;;
47161;SDS011;32921;53.256;8.198;2023-11-19T02:26:02;912.33;;;814.75;;
47161;SDS011;32921;53.256;8.198;2023-11-19T02:28:33;886.22;;;794.58;;
47161;SDS011;32921;53.256;8.198;2023-11-19T02:31:01;901.60;;;806.08;;
47161;SDS011;32921;53.256;8.198;2023-11-19T02:33:29;905.28;;;809.28;;
47161;SDS011;32921;53.256;8.198;2023-11-19T02:35:55;914.03;;;818.10;;
47161;SDS011;32921;53.256;8.198;2023-11-19T02:38:21;914.35;;;817.67;;
47161;SDS011;32921;53.256;8.198;2023-11-19T02:40:46;903.60;;;808.33;;
47161;SDS011;32921;53.256;8.198;2023-11-19T02:43:12;911.75;;;815.10;;
47161;SDS011;32921;53.256;8.198;2023-11-19T02:45:38;924.47;;;826.33;;
47161;SDS011;32921;53.256;8.198;2023-11-19T02:48:04;920.05;;;822.70;;
47161;SDS011;32921;53.256;8.198;2023-11-19T02:50:31;909.42;;;812.60;;
47161;SDS011;32921;53.256;8.198;2023-11-19T02:52:57;914.42;;;817.90;;
47161;SDS011;32921;53.256;8.198;2023-11-19T02:55:23;911.80;;;814.58;;
47161;SDS011;32921;53.256;8.198;2023-11-19T02:57:49;917.00;;;818.63;;
47161;SDS011;32921;53.256;8.198;2023-11-19T03:00:16;922.72;;;823.10;;
47161;SDS011;32921;53.256;8.198;2023-11-19T03:02:43;931.63;;;831.47;;
47161;SDS011;32921;53.256;8.198;2023-11-19T03:05:14;910.75;;;813.78;;
47161;SDS011;32921;53.256;8.198;2023-11-19T03:07:43;905.72;;;809.05;;
47161;SDS011;32921;53.256;8.198;2023-11-19T03:10:12;915.85;;;817.95;;
47161;SDS011;32921;53.256;8.198;2023-11-19T03:15:06;882.22;;;791.90;;
47161;SDS011;32921;53.256;8.198;2023-11-19T03:17:34;900.83;;;806.13;;
47161;SDS011;32921;53.256;8.198;2023-11-19T03:20:01;914.05;;;815.60;;
47161;SDS011;32921;53.256;8.198;2023-11-19T03:22:27;901.90;;;805.92;;
47161;SDS011;32921;53.256;8.198;2023-11-19T03:24:52;937.00;;;836.10;;
47161;SDS011;32921;53.256;8.198;2023-11-19T03:27:18;939.45;;;838.35;;
47161;SDS011;32921;53.256;8.198;2023-11-19T03:29:43;918.13;;;818.88;;
47161;SDS011;32921;53.256;8.198;2023-11-19T03:32:09;952.65;;;849.17;;
47161;SDS011;32921;53.256;8.198;2023-11-19T03:34:34;934.53;;;832.97;;
47161;SDS011;32921;53.256;8.198;2023-11-19T03:37:00;953.15;;;848.97;;
47161;SDS011;32921;53.256;8.198;2023-11-19T03:39:25;933.35;;;829.75;;
47161;SDS011;32921;53.256;8.198;2023-11-19T03:41:52;940.45;;;838.20;;
47161;SDS011;32921;53.256;8.198;2023-11-19T03:44:17;919.10;;;819.88;;
47161;SDS011;32921;53.256;8.198;2023-11-19T03:46:44;927.17;;;827.08;;
47161;SDS011;32921;53.256;8.198;2023-11-19T03:49:09;917.20;;;817.92;;
47161;SDS011;32921;53.256;8.198;2023-11-19T03:51:37;941.50;;;839.20;;
47161;SDS011;32921;53.256;8.198;2023-11-19T03:54:02;941.50;;;838.75;;
47161;SDS011;32921;53.256;8.198;2023-11-19T03:56:28;942.70;;;839.42;;
47161;SDS011;32921;53.256;8.198;2023-11-19T03:58:53;943.05;;;839.38;;
47161;SDS011;32921;53.256;8.198;2023-11-19T04:01:19;944.20;;;836.05;;
47161;SDS011;32921;53.256;8.198;2023-11-19T04:03:44;919.88;;;818.60;;
47161;SDS011;32921;53.256;8.198;2023-11-19T04:06:10;937.28;;;835.42;;
47161;SDS011;32921;53.256;8.198;2023-11-19T04:08:35;921.65;;;820.53;;
47161;SDS011;32921;53.256;8.198;2023-11-19T04:11:04;905.58;;;805.05;;
47161;SDS011;32921;53.256;8.198;2023-11-19T04:13:30;950.75;;;846.60;;
47161;SDS011;32921;53.256;8.198;2023-11-19T04:15:56;941.17;;;831.92;;
47161;SDS011;32921;53.256;8.198;2023-11-19T04:18:21;952.60;;;825.83;;
47161;SDS011;32921;53.256;8.198;2023-11-19T04:20:47;927.53;;;823.17;;
47161;SDS011;32921;53.256;8.198;2023-11-19T04:23:12;981.20;;;844.10;;
47161;SDS011;32921;53.256;8.198;2023-11-19T04:25:38;955.30;;;826.92;;
47161;SDS011;32921;53.256;8.198;2023-11-19T04:28:03;957.35;;;814.47;;
47161;SDS011;32921;53.256;8.198;2023-11-19T04:30:29;925.58;;;800.30;;
47161;SDS011;32921;53.256;8.198;2023-11-19T04:32:56;936.75;;;818.72;;
47161;SDS011;32921;53.256;8.198;2023-11-19T04:35:22;1007.20;;;835.33;;
47161;SDS011;32921;53.256;8.198;2023-11-19T04:37:48;974.92;;;824.35;;
47161;SDS011;32921;53.256;8.198;2023-11-19T04:40:14;989.60;;;829.70;;
47161;SDS011;32921;53.256;8.198;2023-11-19T04:42:39;978.63;;;819.53;;
47161;SDS011;32921;53.256;8.198;2023-11-19T04:45:05;937.05;;;791.97;;
47161;SDS011;32921;53.256;8.198;2023-11-19T04:47:32;992.58;;;827.40;;
47161;SDS011;32921;53.256;8.198;2023-11-19T04:49:58;970.97;;;811.53;;
47161;SDS011;32921;53.256;8.198;2023-11-19T04:52:24;1021.17;;;838.40;;
47161;SDS011;32921;53.256;8.198;2023-11-19T04:54:49;1058.80;;;854.65;;
47161;SDS011;32921;53.256;8.198;2023-11-19T04:57:15;1044.03;;;855.00;;
47161;SDS011;32921;53.256;8.198;2023-11-19T04:59:41;1063.13;;;849.20;;
47161;SDS011;32921;53.256;8.198;2023-11-19T05:02:06;1042.22;;;836.13;;
47161;SDS011;32921;53.256;8.198;2023-11-19T05:04:33;1164.05;;;880.25;;
47161;SDS011;32921;53.256;8.198;2023-11-19T05:06:59;1086.35;;;868.83;;
47161;SDS011;32921;53.256;8.198;2023-11-19T05:09:24;1097.95;;;857.42;;
47161;SDS011;32921;53.256;8.198;2023-11-19T05:11:50;1135.10;;;882.80;;
47161;SDS011;32921;53.256;8.198;2023-11-19T05:14:15;1117.78;;;870.33;;
47161;SDS011;32921;53.256;8.198;2023-11-19T05:16:41;1101.80;;;874.17;;
47161;SDS011;32921;53.256;8.198;2023-11-19T05:19:10;1096.88;;;873.63;;
47161;SDS011;32921;53.256;8.198;2023-11-19T05:21:35;1158.05;;;895.03;;
47161;SDS011;32921;53.256;8.198;2023-11-19T05:24:01;1108.22;;;875.65;;
47161;SDS011;32921;53.256;8.198;2023-11-19T05:26:30;1169.40;;;891.83;;
47161;SDS011;32921;53.256;8.198;2023-11-19T05:28:56;1217.03;;;908.67;;
47161;SDS011;32921;53.256;8.198;2023-11-19T05:31:21;1186.60;;;905.63;;
47161;SDS011;32921;53.256;8.198;2023-11-19T05:33:47;1200.32;;;914.72;;
47161;SDS011;32921;53.256;8.198;2023-11-19T05:36:13;1109.57;;;893.63;;
47161;SDS011;32921;53.256;8.198;2023-11-19T05:38:39;1153.32;;;902.58;;
47161;SDS011;32921;53.256;8.198;2023-11-19T05:41:04;1188.00;;;921.08;;
47161;SDS011;32921;53.256;8.198;2023-11-19T05:43:30;1189.82;;;921.38;;
47161;SDS011;32921;53.256;8.198;2023-11-19T05:45:57;1118.38;;;902.53;;
47161;SDS011;32921;53.256;8.198;2023-11-19T05:48:22;1209.60;;;943.95;;
47161;SDS011;32921;53.256;8.198;2023-11-19T05:50:48;1238.85;;;941.58;;
47161;SDS011;32921;53.256;8.198;2023-11-19T05:53:15;1221.35;;;931.35;;
47161;SDS011;32921;53.256;8.198;2023-11-19T05:55:41;1247.63;;;950.40;;
47161;SDS011;32921;53.256;8.198;2023-11-19T05:58:24;1136.15;;;913.28;;
47161;SDS011;32921;53.256;8.198;2023-11-19T06:00:57;1130.88;;;912.28;;
47161;SDS011;32921;53.256;8.198;2023-11-19T06:03:23;1101.43;;;894.92;;
47161;SDS011;32921;53.256;8.198;2023-11-19T06:05:49;997.70;;;863.92;;
47161;SDS011;32921;53.256;8.198;2023-11-19T06:08:15;959.13;;;847.38;;
47161;SDS011;32921;53.256;8.198;2023-11-19T06:10:41;880.67;;;785.85;;
47161;SDS011;32921;53.256;8.198;2023-11-19T06:13:07;743.78;;;661.22;;
47161;SDS011;32921;53.256;8.198;2023-11-19T06:15:35;724.55;;;610.47;;
47161;SDS011;32921;53.256;8.198;2023-11-19T06:18:01;648.08;;;552.65;;
47161;SDS011;32921;53.256;8.198;2023-11-19T06:20:28;650.60;;;552.80;;
47161;SDS011;32921;53.256;8.198;2023-11-19T06:22:54;595.38;;;519.72;;
47161;SDS011;32921;53.256;8.198;2023-11-19T06:25:21;599.08;;;533.47;;
47161;SDS011;32921;53.256;8.198;2023-11-19T06:27:48;655.08;;;587.05;;
47161;SDS011;32921;53.256;8.198;2023-11-19T06:30:14;644.63;;;578.60;;
47161;SDS011;32921;53.256;8.198;2023-11-19T06:32:40;676.75;;;608.55;;
47161;SDS011;32921;53.256;8.198;2023-11-19T06:35:05;677.30;;;611.58;;
47161;SDS011;32921;53.256;8.198;2023-11-19T06:37:31;687.17;;;621.85;;
47161;SDS011;32921;53.256;8.198;2023-11-19T06:39:57;619.20;;;558.75;;
47161;SDS011;32921;53.256;8.198;2023-11-19T06:42:23;615.45;;;550.75;;
47161;SDS011;32921;53.256;8.198;2023-11-19T06:44:48;544.05;;;483.33;;
47161;SDS011;32921;53.256;8.198;2023-11-19T06:47:14;567.40;;;461.38;;
47161;SDS011;32921;53.256;8.198;2023-11-19T06:49:40;492.40;;;412.90;;
47161;SDS011;32921;53.256;8.198;2023-11-19T06:52:08;521.60;;;454.25;;
47161;SDS011;32921;53.256;8.198;2023-11-19T06:54:34;558.58;;;500.40;;
47161;SDS011;32921;53.256;8.198;2023-11-19T06:56:59;581.20;;;522.40;;
47161;SDS011;32921;53.256;8.198;2023-11-19T06:59:28;612.85;;;552.58;;
47161;SDS011;32921;53.256;8.198;2023-11-19T07:01:54;685.35;;;621.92;;
47161;SDS011;32921;53.256;8.198;2023-11-19T07:04:20;661.53;;;601.40;;
47161;SDS011;32921;53.256;8.198;2023-11-19T07:06:46;661.78;;;605.08;;
47161;SDS011;32921;53.256;8.198;2023-11-19T07:09:13;710.92;;;649.05;;
47161;SDS011;32921;53.256;8.198;2023-11-19T07:11:39;708.78;;;646.17;;
47161;SDS011;32921;53.256;8.198;2023-11-19T07:14:07;703.70;;;641.92;;
47161;SDS011;32921;53.256;8.198;2023-11-19T07:16:33;728.22;;;663.58;;
47161;SDS011;32921;53.256;8.198;2023-11-19T07:18:59;703.10;;;640.15;;
47161;SDS011;32921;53.256;8.198;2023-11-19T07:21:28;714.83;;;651.10;;
47161;SDS011;32921;53.256;8.198;2023-11-19T07:23:54;741.97;;;674.30;;
47161;SDS011;32921;53.256;8.198;2023-11-19T07:26:21;797.60;;;723.50;;
47161;SDS011;32921;53.256;8.198;2023-11-19T07:28:47;854.42;;;774.33;;
47161;SDS011;32921;53.256;8.198;2023-11-19T07:31:13;872.28;;;792.22;;
47161;SDS011;32921;53.256;8.198;2023-11-19T07:33:39;906.25;;;820.78;;
47161;SDS011;32921;53.256;8.198;2023-11-19T07:36:07;903.30;;;818.03;;
47161;SDS011;32921;53.256;8.198;2023-11-19T07:38:33;950.72;;;856.15;;
47161;SDS011;32921;53.256;8.198;2023-11-19T07:40:59;973.10;;;869.35;;
47161;SDS011;32921;53.256;8.198;2023-11-19T07:43:25;943.72;;;839.20;;
47161;SDS011;32921;53.256;8.198;2023-11-19T07:45:50;1013.63;;;863.88;;
47161;SDS011;32921;53.256;8.198;2023-11-19T07:48:16;1050.93;;;873.80;;
47161;SDS011;32921;53.256;8.198;2023-11-19T07:50:43;1185.78;;;922.72;;
47161;SDS011;32921;53.256;8.198;2023-11-19T07:53:08;1204.53;;;916.47;;
47161;SDS011;32921;53.256;8.198;2023-11-19T07:55:34;1242.32;;;939.30;;
47161;SDS011;32921;53.256;8.198;2023-11-19T07:57:59;1254.95;;;926.55;;
47161;SDS011;32921;53.256;8.198;2023-11-19T08:00:26;1303.40;;;950.88;;
47161;SDS011;32921;53.256;8.198;2023-11-19T08:02:51;1361.22;;;966.47;;
47161;SDS011;32921;53.256;8.198;2023-11-19T08:05:17;1391.93;;;979.10;;
47161;SDS011;32921;53.256;8.198;2023-11-19T08:07:43;1475.72;;;992.00;;
47161;SDS011;32921;53.256;8.198;2023-11-19T08:10:08;1539.07;;;999.90;;
47161;SDS011;32921;53.256;8.198;2023-11-19T08:12:35;1556.05;;;999.90;;
47161;SDS011;32921;53.256;8.198;2023-11-19T08:15:01;1602.00;;;999.90;;
47161;SDS011;32921;53.256;8.198;2023-11-19T08:17:27;1669.68;;;999.90;;
47161;SDS011;32921;53.256;8.198;2023-11-19T08:19:53;1655.13;;;999.90;;
47161;SDS011;32921;53.256;8.198;2023-11-19T08:22:18;1742.70;;;999.90;;
47161;SDS011;32921;53.256;8.198;2023-11-19T08:24:44;1776.60;;;999.90;;
47161;SDS011;32921;53.256;8.198;2023-11-19T08:27:09;1729.78;;;999.90;;
47161;SDS011;32921;53.256;8.198;2023-11-19T08:29:35;1726.05;;;999.90;;
47161;SDS011;32921;53.256;8.198;2023-11-19T08:32:01;1693.13;;;999.90;;
47161;SDS011;32921;53.256;8.198;2023-11-19T08:34:28;1672.45;;;999.90;;
47161;SDS011;32921;53.256;8.198;2023-11-19T08:36:54;1763.60;;;999.90;;
47161;SDS011;32921;53.256;8.198;2023-11-19T08:39:20;1675.88;;;999.90;;
47161;SDS011;32921;53.256;8.198;2023-11-19T08:41:48;1653.43;;;999.90;;
47161;SDS011;32921;53.256;8.198;2023-11-19T08:44:15;1705.80;;;999.90;;
47161;SDS011;32921;53.256;8.198;2023-11-19T08:46:50;1699.93;;;999.90;;
47161;SDS011;32921;53.256;8.198;2023-11-19T08:49:16;1716.03;;;999.90;;
47161;SDS011;32921;53.256;8.198;2023-11-19T08:51:42;1706.15;;;999.90;;
47161;SDS011;32921;53.256;8.198;2023-11-19T08:54:08;1698.15;;;999.90;;
47161;SDS011;32921;53.256;8.198;2023-11-19T08:56:34;1641.85;;;999.90;;
47161;SDS011;32921;53.256;8.198;2023-11-19T08:59:00;1603.40;;;999.90;;
47161;SDS011;32921;53.256;8.198;2023-11-19T09:01:26;1622.05;;;999.90;;
47161;SDS011;32921;53.256;8.198;2023-11-19T09:03:51;1583.05;;;999.90;;
47161;SDS011;32921;53.256;8.198;2023-11-19T09:06:17;1475.32;;;996.40;;
47161;SDS011;32921;53.256;8.198;2023-11-19T09:08:43;1438.13;;;974.78;;
47161;SDS011;32921;53.256;8.198;2023-11-19T09:11:08;1403.70;;;966.85;;
47161;SDS011;32921;53.256;8.198;2023-11-19T09:13:35;1364.95;;;940.67;;
47161;SDS011;32921;53.256;8.198;2023-11-19T09:16:01;1222.90;;;908.90;;
47161;SDS011;32921;53.256;8.198;2023-11-19T09:18:29;1184.75;;;893.88;;
47161;SDS011;32921;53.256;8.198;2023-11-19T09:20:56;1125.80;;;882.40;;
47161;SDS011;32921;53.256;8.198;2023-11-19T09:23:22;1155.05;;;901.63;;
47161;SDS011;32921;53.256;8.198;2023-11-19T09:25:49;1044.80;;;854.15;;
47161;SDS011;32921;53.256;8.198;2023-11-19T09:28:15;1062.30;;;889.58;;
47161;SDS011;32921;53.256;8.198;2023-11-19T09:30:40;1038.50;;;888.85;;
47161;SDS011;32921;53.256;8.198;2023-11-19T09:33:06;1016.42;;;889.42;;
47161;SDS011;32921;53.256;8.198;2023-11-19T09:35:31;988.85;;;875.17;;
47161;SDS011;32921;53.256;8.198;2023-11-19T09:37:57;986.25;;;858.70;;
47161;SDS011;32921;53.256;8.198;2023-11-19T09:40:24;956.90;;;842.63;;
47161;SDS011;32921;53.256;8.198;2023-11-19T09:42:49;1024.40;;;898.35;;
47161;SDS011;32921;53.256;8.198;2023-11-19T09:45:16;1030.75;;;874.58;;
47161;SDS011;32921;53.256;8.198;2023-11-19T09:47:43;1040.30;;;867.65;;
47161;SDS011;32921;53.256;8.198;2023-11-19T09:50:21;1088.70;;;876.08;;
47161;SDS011;32921;53.256;8.198;2023-11-19T09:52:47;1146.00;;;899.28;;
47161;SDS011;32921;53.256;8.198;2023-11-19T09:55:12;1206.13;;;905.78;;
47161;SDS011;32921;53.256;8.198;2023-11-19T09:57:39;1286.38;;;923.60;;
47161;SDS011;32921;53.256;8.198;2023-11-19T10:00:06;1327.28;;;948.42;;
47161;SDS011;32921;53.256;8.198;2023-11-19T10:02:33;1418.65;;;966.95;;
47161;SDS011;32921;53.256;8.198;2023-11-19T10:05:01;1535.88;;;999.90;;
47161;SDS011;32921;53.256;8.198;2023-11-19T10:07:30;1533.75;;;999.78;;
47161;SDS011;32921;53.256;8.198;2023-11-19T10:09:57;1576.38;;;999.90;;
47161;SDS011;32921;53.256;8.198;2023-11-19T10:12:26;1624.95;;;999.90;;
47161;SDS011;32921;53.256;8.198;2023-11-19T10:14:52;1662.28;;;999.90;;
47161;SDS011;32921;53.256;8.198;2023-11-19T10:17:21;1589.95;;;999.90;;
47161;SDS011;32921;53.256;8.198;2023-11-19T10:19:46;1529.55;;;999.90;;
47161;SDS011;32921;53.256;8.198;2023-11-19T10:22:12;1511.15;;;996.42;;
47161;SDS011;32921;53.256;8.198;2023-11-19T10:24:39;1396.47;;;961.85;;
47161;SDS011;32921;53.256;8.198;2023-11-19T10:27:09;1384.88;;;957.10;;
47161;SDS011;32921;53.256;8.198;2023-11-19T10:29:37;1332.47;;;938.75;;
47161;SDS011;32921;53.256;8.198;2023-11-19T10:32:03;1311.10;;;931.95;;
47161;SDS011;32921;53.256;8.198;2023-11-19T10:34:29;1260.90;;;909.60;;
47161;SDS011;32921;53.256;8.198;2023-11-19T10:36:55;1250.28;;;916.88;;
47161;SDS011;32921;53.256;8.198;2023-11-19T10:39:20;1202.00;;;900.65;;
47161;SDS011;32921;53.256;8.198;2023-11-19T10:41:46;1150.63;;;882.38;;
47161;SDS011;32921;53.256;8.198;2023-11-19T10:44:12;1064.82;;;846.53;;
47161;SDS011;32921;53.256;8.198;2023-11-19T10:46:41;964.60;;;846.08;;
47161;SDS011;32921;53.256;8.198;2023-11-19T10:49:08;935.88;;;836.75;;
47161;SDS011;32921;53.256;8.198;2023-11-19T10:51:34;924.95;;;831.42;;
47161;SDS011;32921;53.256;8.198;2023-11-19T10:54:03;930.60;;;841.60;;
47161;SDS011;32921;53.256;8.198;2023-11-19T10:56:33;889.10;;;808.55;;
47161;SDS011;32921;53.256;8.198;2023-11-19T10:58:59;806.75;;;737.83;;
47161;SDS011;32921;53.256;8.198;2023-11-19T11:01:33;766.17;;;698.25;;
47161;SDS011;32921;53.256;8.198;2023-11-19T11:04:05;726.60;;;661.88;;
47161;SDS011;32921;53.256;8.198;2023-11-19T11:06:36;644.90;;;585.33;;
47161;SDS011;32921;53.256;8.198;2023-11-19T11:09:02;607.80;;;549.83;;
47161;SDS011;32921;53.256;8.198;2023-11-19T11:11:29;591.28;;;534.67;;
47161;SDS011;32921;53.256;8.198;2023-11-19T11:13:55;623.50;;;562.65;;
47161;SDS011;32921;53.256;8.198;2023-11-19T11:16:23;690.80;;;627.20;;
47161;SDS011;32921;53.256;8.198;2023-11-19T11:18:50;784.95;;;716.53;;
47161;SDS011;32921;53.256;8.198;2023-11-19T11:21:17;829.20;;;756.20;;
47161;SDS011;32921;53.256;8.198;2023-11-19T11:27:07;800.03;;;730.42;;
47161;SDS011;32921;53.256;8.198;2023-11-19T11:29:47;841.10;;;768.78;;
47161;SDS011;32921;53.256;8.198;2023-11-19T11:37:53;896.08;;;815.30;;
47161;SDS011;32921;53.256;8.198;2023-11-19T11:40:25;920.05;;;835.00;;
47161;SDS011;32921;53.256;8.198;2023-11-19T11:42:51;940.97;;;849.15;;
47161;SDS011;32921;53.256;8.198;2023-11-19T11:45:17;927.40;;;836.58;;
47161;SDS011;32921;53.256;8.198;2023-11-19T11:50:19;961.22;;;861.35;;
47161;SDS011;32921;53.256;8.198;2023-11-19T11:55:34;974.97;;;870.33;;
47161;SDS011;32921;53.256;8.198;2023-11-19T11:58:05;966.45;;;848.95;;
47161;SDS011;32921;53.256;8.198;2023-11-19T12:00:38;1039.22;;;870.85;;
47161;SDS011;32921;53.256;8.198;2023-11-19T12:03:05;1071.88;;;878.55;;
47161;SDS011;32921;53.256;8.198;2023-11-19T12:05:32;1091.65;;;875.88;;
47161;SDS011;32921;53.256;8.198;2023-11-19T12:08:03;1052.65;;;857.25;;
47161;SDS011;32921;53.256;8.198;2023-11-19T12:10:32;1080.13;;;876.53;;
47161;SDS011;32921;53.256;8.198;2023-11-19T12:13:02;1172.82;;;892.20;;
47161;SDS011;32921;53.256;8.198;2023-11-19T12:15:33;1144.35;;;899.50;;
47161;SDS011;32921;53.256;8.198;2023-11-19T12:18:18;1078.32;;;851.35;;
47161;SDS011;32921;53.256;8.198;2023-11-19T12:20:44;1171.82;;;901.40;;
47161;SDS011;32921;53.256;8.198;2023-11-19T12:23:10;1194.40;;;897.55;;
47161;SDS011;32921;53.256;8.198;2023-11-19T12:25:36;1061.15;;;842.83;;
47161;SDS011;32921;53.256;8.198;2023-11-19T12:28:02;1086.57;;;855.00;;
47161;SDS011;32921;53.256;8.198;2023-11-19T12:30:29;1110.07;;;886.80;;
47161;SDS011;32921;53.256;8.198;2023-11-19T12:32:55;1022.45;;;838.72;;
47161;SDS011;32921;53.256;8.198;2023-11-19T12:35:21;1052.10;;;870.67;;
47161;SDS011;32921;53.256;8.198;2023-11-19T12:37:48;1026.47;;;864.92;;
47161;SDS011;32921;53.256;8.198;2023-11-19T12:40:15;1020.20;;;862.50;;
47161;SDS011;32921;53.256;8.198;2023-11-19T12:42:42;1032.30;;;854.65;;
47161;SDS011;32921;53.256;8.198;2023-11-19T12:45:11;1115.03;;;896.50;;
47161;SDS011;32921;53.256;8.198;2023-11-19T12:47:37;1160.45;;;901.85;;
47161;SDS011;32921;53.256;8.198;2023-11-19T12:50:04;1167.88;;;882.33;;
47161;SDS011;32921;53.256;8.198;2023-11-19T12:52:30;1148.00;;;872.67;;
47161;SDS011;32921;53.256;8.198;2023-11-19T12:54:56;1268.18;;;920.97;;
47161;SDS011;32921;53.256;8.198;2023-11-19T12:57:35;1285.22;;;919.20;;
47161;SDS011;32921;53.256;8.198;2023-11-19T13:00:05;1337.32;;;947.05;;
47161;SDS011;32921;53.256;8.198;2023-11-19T13:02:44;1473.57;;;985.15;;
47161;SDS011;32921;53.256;8.198;2023-11-19T13:08:02;1497.03;;;999.72;;
47161;SDS011;32921;53.256;8.198;2023-11-19T13:10:33;1606.88;;;999.90;;
47161;SDS011;32921;53.256;8.198;2023-11-19T13:13:19;1622.90;;;999.90;;
47161;SDS011;32921;53.256;8.198;2023-11-19T13:15:44;1665.32;;;999.90;;
47161;SDS011;32921;53.256;8.198;2023-11-19T13:18:10;1700.20;;;999.90;;
47161;SDS011;32921;53.256;8.198;2023-11-19T13:20:36;1691.63;;;999.90;;
47161;SDS011;32921;53.256;8.198;2023-11-19T13:23:04;1772.13;;;999.90;;
47161;SDS011;32921;53.256;8.198;2023-11-19T13:25:30;1739.30;;;999.90;;
47161;SDS011;32921;53.256;8.198;2023-11-19T13:27:57;1718.47;;;999.90;;
47161;SDS011;32921;53.256;8.198;2023-11-19T13:30:23;1765.18;;;999.90;;
47161;SDS011;32921;53.256;8.198;2023-11-19T13:32:50;1736.63;;;999.90;;
47161;SDS011;32921;53.256;8.198;2023-11-19T13:35:16;1671.90;;;999.90;;
47161;SDS011;32921;53.256;8.198;2023-11-19T13:37:43;1547.35;;;997.17;;
47161;SDS011;32921;53.256;8.198;2023-11-19T13:40:09;1549.68;;;999.90;;
47161;SDS011;32921;53.256;8.198;2023-11-19T13:42:38;1462.45;;;983.90;;
47161;SDS011;32921;53.256;8.198;2023-11-19T13:45:10;1520.60;;;998.38;;
47161;SDS011;32921;53.256;8.198;2023-11-19T13:47:38;1472.90;;;974.77;;
47161;SDS011;32921;53.256;8.198;2023-11-19T13:50:06;1468.57;;;991.70;;
47161;SDS011;32921;53.256;8.198;2023-11-19T13:52:36;1492.40;;;975.50;;
47161;SDS011;32921;53.256;8.198;2023-11-19T13:55:04;1482.78;;;981.70;;
47161;SDS011;32921;53.256;8.198;2023-11-19T13:57:31;1518.10;;;998.60;;
47161;SDS011;32921;53.256;8.198;2023-11-19T13:59:57;1475.03;;;981.42;;
47161;SDS011;32921;53.256;8.198;2023-11-19T14:02:22;1472.18;;;984.78;;
47161;SDS011;32921;53.256;8.198;2023-11-19T14:04:48;1570.78;;;999.90;;
47161;SDS011;32921;53.256;8.198;2023-11-19T14:07:14;1519.50;;;994.20;;
47161;SDS011;32921;53.256;8.198;2023-11-19T14:09:41;1558.93;;;999.90;;